Time;durP1;ratioP1;P1;durP2;ratioP2;P2;SDS_P1;SDS_P2;PMS_P1;PMS_P2;Temp;Humidity;BMP_temperature;BMP_pressure;BME280_temperature;BME280_humidity;BME280_pressure;Samples;Min_cycle;Max_cycle;Signal;HPM_P1;HPM_P2
2023/04/13 00:00:51;;;;;;;12.18;8.63;;;;;;;8.34;80.67;99320.28;5094243;28;20113;-44
2023/04/13 00:03:17;;;;;;;12.57;8.20;;;;;;;8.36;80.90;99315.25;5093992;28;20031;-43
2023/04/13 00:05:43;;;;;;;12.55;9.18;;;;;;;8.29;79.99;99315.75;5092520;28;20040;-44
2023/04/13 00:08:08;;;;;;;12.20;8.60;;;;;;;8.20;81.53;99306.72;5094040;28;20070;-44
2023/04/13 00:10:35;;;;;;;13.77;8.82;;;;;;;8.21;81.31;99306.41;5093972;28;20028;-44
2023/04/13 00:13:01;;;;;;;12.43;8.98;;;;;;;8.18;82.48;99309.81;5094071;28;20035;-44
2023/04/13 00:15:27;;;;;;;13.38;8.57;;;;;;;8.24;82.85;99297.47;5093823;28;20070;-43
2023/04/13 00:17:52;;;;;;;14.48;9.10;;;;;;;8.28;82.89;99311.38;5093955;28;20043;-46
2023/04/13 00:20:18;;;;;;;11.77;8.95;;;;;;;8.30;83.42;99308.31;5093932;28;20035;-44
2023/04/13 00:22:45;;;;;;;13.75;9.05;;;;;;;8.26;83.26;99306.22;5093620;28;20124;-43
2023/04/13 00:25:13;;;;;;;14.85;9.20;;;;;;;8.23;82.56;99306.88;5093514;28;20449;-45
2023/04/13 00:27:38;;;;;;;12.45;9.10;;;;;;;8.24;82.75;99302.97;5093643;28;20032;-43
2023/04/13 00:30:12;;;;;;;12.50;9.50;;;;;;;8.24;82.67;99305.72;5092333;28;20028;-44
2023/04/13 00:32:41;;;;;;;14.18;9.30;;;;;;;8.25;83.17;99288.06;5092363;28;20028;-42
2023/04/13 00:35:07;;;;;;;14.23;9.23;;;;;;;8.21;82.93;99297.31;5087869;28;20536;-42
2023/04/13 00:37:33;;;;;;;12.52;9.18;;;;;;;8.18;82.48;99304.28;5093676;28;20024;-44
2023/04/13 00:39:58;;;;;;;13.88;8.95;;;;;;;8.19;84.13;99283.88;5093554;28;20051;-45
2023/04/13 00:42:24;;;;;;;12.27;9.38;;;;;;;8.16;85.41;99280.97;5093513;28;20546;-46
2023/04/13 00:44:53;;;;;;;12.30;9.13;;;;;;;8.10;85.12;99294.91;5091504;28;20078;-45
2023/04/13 00:47:25;;;;;;;13.65;9.35;;;;;;;8.05;85.72;99306.09;5093497;28;20059;-44
2023/04/13 00:49:52;;;;;;;14.25;9.57;;;;;;;8.02;87.03;99305.97;5093144;28;20028;-45
2023/04/13 00:52:20;;;;;;;15.77;9.60;;;;;;;7.94;87.49;99297.38;5093626;28;20024;-46
2023/04/13 00:54:47;;;;;;;13.88;9.90;;;;;;;7.94;88.06;99297.38;5083050;28;20371;-42
2023/04/13 00:57:15;;;;;;;16.25;10.25;;;;;;;7.92;87.87;99290.56;5072553;28;20490;-44
2023/04/13 00:59:40;;;;;;;15.13;9.80;;;;;;;7.99;88.13;99290.09;5081740;28;20089;-43
2023/04/13 01:02:06;;;;;;;15.20;10.50;;;;;;;7.99;88.15;99295.59;5092871;28;20028;-47
2023/04/13 01:04:33;;;;;;;14.13;10.38;;;;;;;7.96;87.89;99291.56;5093016;28;20036;-44
2023/04/13 01:07:10;;;;;;;15.20;10.10;;;;;;;7.88;88.40;99284.91;5093129;28;20035;-44
2023/04/13 01:09:44;;;;;;;14.93;10.18;;;;;;;7.80;88.36;99277.47;5092653;28;20039;-46
2023/04/13 01:12:27;;;;;;;11.90;9.63;;;;;;;7.87;88.92;99282.50;5092782;28;20028;-45
2023/04/13 01:15:04;;;;;;;13.93;10.13;;;;;;;7.78;88.87;99275.06;5092828;28;20051;-45
2023/04/13 01:17:32;;;;;;;12.68;10.20;;;;;;;7.85;89.71;99291.06;5092717;28;20035;-43
2023/04/13 01:20:13;;;;;;;15.48;10.23;;;;;;;7.83;89.30;99296.09;5092503;28;20032;-46
2023/04/13 01:22:41;;;;;;;15.68;10.60;;;;;;;7.73;89.92;99294.47;5092547;28;20028;-49
2023/04/13 01:25:25;;;;;;;15.27;10.40;;;;;;;7.73;90.43;99288.19;5092492;28;20034;-45
2023/04/13 01:27:54;;;;;;;;;;;;;;;7.75;88.45;99305.97;5086065;28;20438;-44
2023/04/13 01:30:21;;;;;;;15.15;10.20;;;;;;;7.66;90.60;99307.94;5084583;28;19923;-47
2023/04/13 01:32:48;;;;;;;15.13;10.25;;;;;;;7.68;90.88;99297.41;5091889;28;20024;-43
2023/04/13 01:35:14;;;;;;;15.27;10.43;;;;;;;7.73;90.81;99296.44;5088943;28;20046;-45
2023/04/13 01:37:42;;;;;;;13.30;10.10;;;;;;;7.71;90.84;99299.50;5092264;28;20450;-44
2023/04/13 01:40:10;;;;;;;17.30;11.20;;;;;;;7.67;90.70;99304.03;5092349;28;20129;-45
2023/04/13 01:42:36;;;;;;;16.55;10.20;;;;;;;7.66;91.30;99316.19;5092032;28;20089;-44
2023/04/13 01:45:04;;;;;;;17.95;10.65;;;;;;;7.67;91.88;99305.97;5081592;28;20039;-45
2023/04/13 01:47:33;;;;;;;18.40;11.20;;;;;;;7.59;91.79;99319.41;5072026;28;20085;-46
2023/04/13 01:50:07;;;;;;;15.35;10.50;;;;;;;7.68;93.19;99321.34;5071824;28;20466;-43
2023/04/13 01:52:33;;;;;;;14.48;10.40;;;;;;;7.67;92.33;99322.50;5072189;28;20039;-44
2023/04/13 01:54:59;;;;;;;15.10;10.10;;;;;;;7.67;92.53;99331.56;5080246;28;20069;-43
2023/04/13 01:57:27;;;;;;;16.65;11.10;;;;;;;7.65;93.54;99331.88;5091955;28;20024;-47
2023/04/13 01:59:52;;;;;;;16.92;10.52;;;;;;;7.60;93.54;99336.75;5091809;28;20502;-45
2023/04/13 02:02:17;;;;;;;16.33;10.60;;;;;;;7.58;94.15;99352.78;5092090;28;20055;-44
2023/04/13 02:04:43;;;;;;;17.27;10.90;;;;;;;7.55;94.70;99343.22;5091678;28;20020;-43
2023/04/13 02:07:09;;;;;;;16.10;10.40;;;;;;;7.54;95.71;99349.03;5092463;28;20066;-46
2023/04/13 02:09:34;;;;;;;17.42;10.57;;;;;;;7.50;95.61;99351.63;5092001;28;20028;-48
2023/04/13 02:12:00;;;;;;;15.70;10.48;;;;;;;7.61;96.09;99358.44;5092186;28;20107;-44
2023/04/13 02:14:26;;;;;;;16.85;10.50;;;;;;;7.60;95.54;99345.00;5091965;28;20059;-48
2023/04/13 02:16:51;;;;;;;14.60;10.80;;;;;;;7.70;96.97;99363.13;5092074;28;20043;-47
2023/04/13 02:19:16;;;;;;;16.40;10.95;;;;;;;7.69;96.36;99367.03;5092022;28;20039;-48
2023/04/13 02:21:41;;;;;;;16.67;11.30;;;;;;;7.60;96.27;99356.81;5092117;28;20038;-46
2023/04/13 02:24:07;;;;;;;15.57;10.35;;;;;;;7.58;96.64;99372.84;5092326;28;20032;-48
2023/04/13 02:26:33;;;;;;;17.40;10.90;;;;;;;7.51;97.03;99371.72;5091931;28;20043;-48
2023/04/13 02:28:58;;;;;;;16.58;10.60;;;;;;;7.52;96.99;99379.66;5091630;28;20399;-45
2023/04/13 02:31:23;;;;;;;15.93;10.90;;;;;;;7.49;97.43;99375.59;5088292;28;20166;-45
2023/04/13 02:33:50;;;;;;;16.67;10.85;;;;;;;7.46;97.28;99387.25;5091988;28;20027;-45
2023/04/13 02:36:17;;;;;;;14.95;9.55;;;;;;;7.43;97.47;99392.56;5073838;28;20037;-46
2023/04/13 02:38:43;;;;;;;15.90;10.52;;;;;;;7.42;97.76;99399.19;5071528;28;20421;-45
2023/04/13 02:41:09;;;;;;;14.57;10.38;;;;;;;7.42;97.75;99405.50;5087207;28;20028;-43
2023/04/13 02:43:34;;;;;;;14.55;10.32;;;;;;;7.44;98.26;99402.44;5091773;28;20032;-45
2023/04/13 02:46:01;;;;;;;17.23;11.07;;;;;;;7.44;97.74;99413.47;5091576;28;20467;-45
2023/04/13 02:48:27;;;;;;;18.73;10.88;;;;;;;7.44;97.51;99417.00;5091581;28;20494;-47
2023/04/13 02:50:52;;;;;;;15.30;10.98;;;;;;;7.48;98.19;99430.94;5091781;28;20043;-45
2023/04/13 02:53:18;;;;;;;16.45;10.90;;;;;;;7.45;98.20;99435.13;5092201;28;20562;-43
2023/04/13 02:55:43;;;;;;;17.20;10.90;;;;;;;7.48;98.94;99437.25;5095562;28;20508;-44
2023/04/13 02:58:10;;;;;;;17.20;11.32;;;;;;;7.48;100.00;99459.28;5095498;28;20424;-44
2023/04/13 03:00:37;;;;;;;17.65;11.30;;;;;;;7.48;100.00;99455.69;5085343;28;20484;-45
2023/04/13 03:03:03;;;;;;;16.65;11.40;;;;;;;7.41;100.00;99452.59;5074934;28;20028;-42
2023/04/13 03:05:31;;;;;;;18.05;12.07;;;;;;;7.43;100.00;99459.41;5083622;28;20036;-47
2023/04/13 03:07:58;;;;;;;17.90;11.65;;;;;;;7.42;100.00;99457.78;5094820;28;20140;-44
2023/04/13 03:10:23;;;;;;;17.10;11.25;;;;;;;7.40;100.00;99457.31;5094804;28;20036;-46
2023/04/13 03:12:49;;;;;;;18.23;11.30;;;;;;;7.38;100.00;99461.50;5095118;28;20473;-47
2023/04/13 03:15:15;;;;;;;20.08;11.27;;;;;;;7.38;100.00;99456.81;5094889;28;20473;-45
2023/04/13 03:17:42;;;;;;;16.00;11.57;;;;;;;7.39;99.07;99468.63;5094872;28;20047;-44
2023/04/13 03:20:10;;;;;;;16.42;10.88;;;;;;;7.36;96.08;99463.78;5095169;28;20469;-44
2023/04/13 03:22:35;;;;;;;16.23;11.07;;;;;;;7.28;95.17;99473.59;5095051;28;20049;-47
2023/04/13 03:25:01;;;;;;;14.82;10.70;;;;;;;7.31;95.25;99476.53;5089642;28;20033;-46
2023/04/13 03:27:27;;;;;;;14.57;10.57;;;;;;;7.30;95.83;99483.16;5074449;28;20112;-46
2023/04/13 03:29:52;;;;;;;15.45;10.70;;;;;;;7.28;95.16;99482.66;5076593;28;20112;-43
2023/04/13 03:32:17;;;;;;;16.05;10.93;;;;;;;7.28;94.89;99479.91;5094750;28;20028;-46
2023/04/13 03:34:42;;;;;;;16.10;10.88;;;;;;;7.28;94.85;99481.84;5090905;28;20482;-44
2023/04/13 03:37:09;;;;;;;16.30;11.02;;;;;;;7.31;95.16;99493.03;5094872;28;20039;-47
2023/04/13 03:39:35;;;;;;;16.15;11.15;;;;;;;7.24;95.41;99489.13;5089871;28;20094;-44
2023/04/13 03:42:02;;;;;;;15.98;11.23;;;;;;;7.31;95.29;99506.78;5074027;28;20040;-47
2023/04/13 03:44:27;;;;;;;17.58;11.77;;;;;;;7.30;94.86;99507.91;5074063;28;20028;-48
2023/04/13 03:46:53;;;;;;;18.45;11.27;;;;;;;7.30;95.13;99518.13;5092184;28;20027;-47
2023/04/13 03:49:18;;;;;;;16.67;11.60;;;;;;;7.24;94.66;99513.88;5094418;28;20081;-44
2023/04/13 03:51:43;;;;;;;17.85;11.80;;;;;;;7.22;95.04;99518.91;5094189;28;20067;-44
2023/04/13 03:54:08;;;;;;;17.08;11.70;;;;;;;7.15;95.13;99519.34;5094308;28;20043;-45
2023/04/13 03:56:34;;;;;;;16.55;11.85;;;;;;;7.14;96.22;99524.00;5079378;28;20093;-44
2023/04/13 03:58:59;;;;;;;17.67;12.27;;;;;;;7.08;95.55;99530.00;5074110;28;20480;-46
2023/04/13 04:01:26;;;;;;;17.90;11.70;;;;;;;7.06;96.48;99538.53;5087431;28;20105;-45
2023/04/13 04:03:54;;;;;;;18.00;12.05;;;;;;;7.01;96.34;99542.22;5094292;28;20127;-47
2023/04/13 04:06:20;;;;;;;18.95;12.30;;;;;;;7.00;96.67;99528.81;5076904;28;20070;-47
2023/04/13 04:08:48;;;;;;;18.15;12.30;;;;;;;6.98;97.10;99553.88;5094047;28;21974;-43
2023/04/13 04:11:13;;;;;;;18.40;12.85;;;;;;;6.97;97.20;99554.16;5093978;28;20028;-43
2023/04/13 04:13:39;;;;;;;18.77;13.27;;;;;;;6.96;97.89;99558.03;5094197;28;20119;-47
2023/04/13 04:16:07;;;;;;;19.90;13.13;;;;;;;6.89;97.91;99550.25;5093994;28;20542;-47
2023/04/13 04:18:32;;;;;;;18.10;13.05;;;;;;;6.94;98.29;99563.84;5094586;28;20028;-44
2023/04/13 04:20:58;;;;;;;19.63;13.40;;;;;;;6.94;98.07;99566.59;5093703;28;20026;-45
2023/04/13 04:23:27;;;;;;;20.15;13.40;;;;;;;6.92;98.50;99574.34;5094026;28;20028;-44
2023/04/13 04:25:52;;;;;;;18.27;13.02;;;;;;;6.92;99.16;99577.09;5094187;28;20055;-45
2023/04/13 04:28:18;;;;;;;20.10;13.57;;;;;;;6.91;99.62;99580.97;5094154;28;20035;-47
2023/04/13 04:30:52;;;;;;;18.77;13.32;;;;;;;6.94;99.34;99576.81;5093762;28;20783;-45
2023/04/13 04:33:21;;;;;;;20.70;13.75;;;;;;;6.96;99.27;99580.03;5092167;27;20030;-44
2023/04/13 04:35:49;;;;;;;20.70;13.40;;;;;;;6.94;99.41;99580.34;5084728;28;20085;-47
2023/04/13 04:38:16;;;;;;;20.77;13.40;;;;;;;6.93;99.36;99586.19;5073091;28;20036;-44
2023/04/13 04:40:45;;;;;;;20.05;13.50;;;;;;;6.92;99.39;99595.56;5078640;28;20040;-45
2023/04/13 04:43:13;;;;;;;21.45;14.10;;;;;;;6.87;100.00;99596.47;5093301;28;20089;-43
2023/04/13 04:45:42;;;;;;;21.20;13.93;;;;;;;6.85;99.90;99595.97;5093161;28;20025;-47
2023/04/13 04:48:08;;;;;;;21.58;13.88;;;;;;;6.89;99.51;99605.25;5092957;28;20485;-46
2023/04/13 04:50:36;;;;;;;19.67;13.15;;;;;;;6.88;99.85;99611.84;5093287;28;20020;-44
2023/04/13 04:53:02;;;;;;;19.85;13.27;;;;;;;6.84;99.44;99611.69;5093301;28;20111;-45
2023/04/13 04:55:27;;;;;;;19.75;13.38;;;;;;;6.82;100.00;99610.34;5093134;28;20507;-46
2023/04/13 04:57:53;;;;;;;18.65;13.10;;;;;;;6.84;99.57;99619.09;5093533;28;20032;-44
2023/04/13 05:00:18;;;;;;;18.88;13.10;;;;;;;6.83;99.53;99617.47;5093499;28;20032;-45
2023/04/13 05:02:45;;;;;;;19.50;13.43;;;;;;;6.85;99.86;99624.28;5093229;28;20409;-44
2023/04/13 05:05:10;;;;;;;20.85;12.80;;;;;;;6.84;99.33;99627.34;5088637;28;20036;-44
2023/04/13 05:07:37;;;;;;;20.17;13.10;;;;;;;6.83;99.31;99623.78;5093052;28;20036;-44
2023/04/13 05:10:03;;;;;;;19.52;12.73;;;;;;;6.85;99.15;99629.75;5092893;28;20020;-44
2023/04/13 05:12:28;;;;;;;19.70;12.75;;;;;;;6.91;99.95;99632.41;5093070;28;20419;-44
2023/04/13 05:14:53;;;;;;;18.90;12.95;;;;;;;6.84;98.87;99624.59;5092803;28;20485;-45
2023/04/13 05:17:19;;;;;;;20.08;12.50;;;;;;;6.83;99.42;99628.47;5091951;28;20042;-46
2023/04/13 05:19:45;;;;;;;22.17;12.55;;;;;;;6.86;98.77;99636.09;5092707;28;20047;-46
2023/04/13 05:22:12;;;;;;;20.85;13.20;;;;;;;6.85;99.44;99627.00;5092653;28;20032;-46
2023/04/13 05:24:38;;;;;;;20.15;12.90;;;;;;;6.95;100.00;99627.91;5092843;28;20071;-47
2023/04/13 05:27:03;;;;;;;19.27;13.38;;;;;;;6.94;99.32;99637.31;5092514;28;20537;-45
2023/04/13 05:29:30;;;;;;;20.40;13.88;;;;;;;6.95;99.20;99641.66;5092527;28;20469;-44
2023/04/13 05:31:58;;;;;;;19.75;13.77;;;;;;;6.91;99.51;99635.97;5087106;28;20060;-45
2023/04/13 05:34:24;;;;;;;20.75;13.07;;;;;;;6.95;99.03;99645.22;5091201;28;20450;-44
2023/04/13 05:36:49;;;;;;;18.92;13.27;;;;;;;6.93;99.11;99644.72;5087498;28;20024;-44
2023/04/13 05:39:14;;;;;;;20.23;13.15;;;;;;;6.95;99.08;99647.16;5086647;28;20086;-44
2023/04/13 05:41:40;;;;;;;19.65;13.60;;;;;;;6.95;99.18;99658.16;5087933;28;20036;-48
2023/04/13 05:44:05;;;;;;;19.35;13.10;;;;;;;6.95;99.19;99653.47;5092005;28;20051;-47
2023/04/13 05:46:31;;;;;;;20.52;13.45;;;;;;;7.11;100.00;99666.84;5092001;28;20070;-47
2023/04/13 05:48:58;;;;;;;19.45;13.18;;;;;;;7.22;99.52;99664.69;5090859;28;20465;-46
2023/04/13 05:51:24;;;;;;;21.60;13.55;;;;;;;7.38;99.05;99665.09;5091788;28;20584;-44
2023/04/13 05:53:49;;;;;;;17.88;13.05;;;;;;;7.51;99.14;99669.72;5092051;28;20020;-45
2023/04/13 05:56:15;;;;;;;19.92;13.38;;;;;;;7.68;100.00;99671.78;5092130;28;20062;-44
2023/04/13 05:58:40;;;;;;;19.38;12.93;;;;;;;7.83;97.11;99684.31;5092416;28;20026;-46
2023/04/13 06:01:07;;;;;;;20.63;12.88;;;;;;;7.93;96.32;99692.31;5091914;28;20051;-43
2023/04/13 06:03:33;;;;;;;18.33;12.35;;;;;;;8.14;96.75;99686.22;5091668;28;20456;-43
2023/04/13 06:05:59;;;;;;;19.02;11.98;;;;;;;8.19;95.51;99701.78;5091640;28;20116;-47
2023/04/13 06:08:26;;;;;;;19.52;12.27;;;;;;;8.17;94.20;99699.38;5091854;28;20020;-43
2023/04/13 06:10:51;;;;;;;19.52;11.90;;;;;;;8.15;94.31;99717.34;5091864;28;20029;-45
2023/04/13 06:13:17;;;;;;;18.63;11.60;;;;;;;8.12;nan;99727.88;5073798;28;20036;-43
2023/04/13 06:15:42;;;;;;;19.58;11.43;;;;;;;8.09;94.02;99720.22;5069619;28;20389;-45
2023/04/13 06:18:08;;;;;;;16.75;11.23;;;;;;;8.08;93.71;99735.13;5088325;28;20576;-45
2023/04/13 06:20:33;;;;;;;17.75;11.60;;;;;;;8.06;93.91;99734.66;5088193;28;20035;-44
2023/04/13 06:22:58;;;;;;;15.90;11.23;;;;;;;8.05;93.65;99733.03;5087913;28;20400;-43
2023/04/13 06:25:24;;;;;;;19.23;11.40;;;;;;;8.09;93.81;99742.25;5087981;28;20036;-44
2023/04/13 06:27:49;;;;;;;18.17;11.30;;;;;;;8.12;93.96;99749.09;5089534;28;20080;-43
2023/04/13 06:30:15;;;;;;;17.38;11.00;;;;;;;8.09;93.87;99750.53;5090772;28;20043;-43
2023/04/13 06:32:40;;;;;;;19.33;12.00;;;;;;;8.06;93.90;99750.34;5092877;28;20032;-43
2023/04/13 06:35:06;;;;;;;17.13;11.23;;;;;;;8.07;94.25;99751.97;5094717;28;20131;-44
2023/04/13 06:37:34;;;;;;;18.92;11.80;;;;;;;8.07;94.77;99747.31;5094831;28;20023;-43
2023/04/13 06:40:07;;;;;;;17.48;11.68;;;;;;;8.06;93.90;99758.63;5094776;28;20055;-44
2023/04/13 06:42:33;;;;;;;17.88;11.90;;;;;;;8.08;94.03;99759.91;5094751;28;20032;-44
2023/04/13 06:44:58;;;;;;;21.50;12.75;;;;;;;8.04;93.83;99758.13;5094381;28;20541;-44
2023/04/13 06:47:23;;;;;;;19.13;12.40;;;;;;;8.11;94.49;99767.56;5092828;28;20032;-45
2023/04/13 06:49:49;;;;;;;18.17;12.23;;;;;;;8.09;94.47;99764.31;5094110;28;20024;-46
2023/04/13 06:52:14;;;;;;;19.02;12.20;;;;;;;8.10;94.66;99773.41;5093882;28;20519;-44
2023/04/13 06:54:39;;;;;;;19.15;12.75;;;;;;;8.12;94.50;99782.16;5093995;28;20085;-45
2023/04/13 06:57:05;;;;;;;18.60;12.48;;;;;;;8.15;94.92;99786.22;5093958;28;20038;-44
2023/04/13 06:59:30;;;;;;;18.55;11.65;;;;;;;8.18;94.68;99791.09;5094061;28;20034;-44
2023/04/13 07:01:56;;;;;;;19.55;11.80;;;;;;;8.19;94.14;99793.53;5093698;28;20094;-44
2023/04/13 07:04:21;;;;;;;17.52;11.27;;;;;;;8.17;94.46;99783.97;5093940;28;20407;-44
2023/04/13 07:06:47;;;;;;;19.95;11.90;;;;;;;8.22;94.39;99786.59;5093542;28;20036;-46
2023/04/13 07:09:12;;;;;;;18.27;11.35;;;;;;;8.29;94.34;99797.94;5093867;28;20465;-45
2023/04/13 07:11:37;;;;;;;17.52;11.57;;;;;;;8.28;94.43;99799.91;5093659;28;20027;-43
2023/04/13 07:14:03;;;;;;;18.50;11.63;;;;;;;8.28;93.64;99801.84;5093550;28;20063;-47
2023/04/13 07:16:28;;;;;;;18.10;11.13;;;;;;;8.26;93.56;99802.16;5093481;28;20046;-44
2023/04/13 07:18:53;;;;;;;18.35;11.48;;;;;;;8.39;93.17;99818.94;5093609;28;20028;-45
2023/04/13 07:21:19;;;;;;;17.50;11.50;;;;;;;8.40;92.58;99812.28;5093183;28;20384;-45
2023/04/13 07:23:44;;;;;;;17.75;11.23;;;;;;;8.42;92.46;99818.28;5093855;28;20050;-47
2023/04/13 07:26:14;;;;;;;17.77;11.18;;;;;;;8.42;92.88;99818.28;5093625;28;20036;-46
2023/04/13 07:28:39;;;;;;;20.63;11.55;;;;;;;8.49;92.43;99828.88;5093694;28;20040;-46
2023/04/13 07:31:05;;;;;;;18.35;11.38;;;;;;;8.51;92.00;99838.47;5091986;28;20035;-47
2023/04/13 07:33:31;;;;;;;18.85;11.85;;;;;;;8.51;91.44;99829.38;5092937;28;20032;-44
2023/04/13 07:35:56;;;;;;;20.42;12.23;;;;;;;8.57;91.35;99842.72;5092818;28;20111;-43
2023/04/13 07:38:21;;;;;;;17.88;11.25;;;;;;;8.60;91.05;99840.47;5092673;28;20469;-43
2023/04/13 07:40:46;;;;;;;20.27;11.43;;;;;;;8.65;91.24;99837.56;5092495;28;20081;-44
2023/04/13 07:43:12;;;;;;;19.13;12.10;;;;;;;8.68;91.41;99854.28;5092801;28;20028;-44
2023/04/13 07:45:37;;;;;;;18.48;11.73;;;;;;;8.64;90.92;99839.50;5092960;28;20024;-43
2023/04/13 07:48:04;;;;;;;20.95;12.35;;;;;;;8.73;91.05;99861.59;5091288;28;20040;-44
2023/04/13 07:50:29;;;;;;;20.40;12.18;;;;;;;8.82;90.38;99861.66;5092781;28;20032;-44
2023/04/13 07:52:54;;;;;;;19.85;11.90;;;;;;;8.88;90.38;99865.88;5092966;28;20032;-43
2023/04/13 07:55:20;;;;;;;18.58;11.68;;;;;;;8.97;89.86;99858.44;5093147;28;20044;-43
2023/04/13 07:57:45;;;;;;;20.42;12.20;;;;;;;8.98;90.21;99868.34;5092860;28;20039;-43
2023/04/13 08:00:13;;;;;;;20.25;12.10;;;;;;;9.05;90.19;99874.22;5092743;28;20541;-44
2023/04/13 08:02:38;;;;;;;19.35;12.13;;;;;;;9.10;89.08;99881.53;5092316;28;20032;-43
2023/04/13 08:05:04;;;;;;;19.42;12.30;;;;;;;9.18;88.82;99880.72;5092610;28;20032;-43
2023/04/13 08:07:29;;;;;;;21.13;12.27;;;;;;;9.19;88.62;99885.13;5091095;28;20047;-44
2023/04/13 08:09:54;;;;;;;21.95;12.57;;;;;;;9.23;88.82;99879.78;5092825;28;20502;-44
2023/04/13 08:12:21;;;;;;;19.42;12.25;;;;;;;9.26;88.27;99897.66;5090992;28;20493;-43
2023/04/13 08:14:46;;;;;;;21.10;12.45;;;;;;;9.29;87.92;99897.81;5091277;28;20115;-43
2023/04/13 08:17:12;;;;;;;20.23;12.35;;;;;;;9.31;86.95;99883.69;5092510;28;20102;-43
2023/04/13 08:19:37;;;;;;;22.55;12.00;;;;;;;9.43;86.55;99910.66;5092625;28;20424;-43
2023/04/13 08:22:03;;;;;;;23.17;12.23;;;;;;;9.46;86.51;99907.28;5092188;28;20103;-44
2023/04/13 08:24:29;;;;;;;19.42;12.00;;;;;;;9.52;86.09;99905.97;5090717;28;20408;-43
2023/04/13 08:26:57;;;;;;;20.45;12.10;;;;;;;9.58;85.66;99918.50;5090447;28;20024;-43
2023/04/13 08:29:23;;;;;;;20.30;12.00;;;;;;;9.60;85.42;99916.22;5092071;28;20101;-43
2023/04/13 08:31:49;;;;;;;19.17;12.15;;;;;;;9.64;85.22;99924.66;5090433;28;20051;-44
2023/04/13 08:34:15;;;;;;;20.65;11.93;;;;;;;9.67;84.05;99941.44;5092256;28;20059;-44
2023/04/13 08:36:41;;;;;;;20.30;11.70;;;;;;;9.69;83.80;99941.09;5091997;28;20039;-43
2023/04/13 08:39:10;;;;;;;21.73;12.00;;;;;;;9.62;83.39;99940.78;5092009;28;20056;-43
2023/04/13 08:41:37;;;;;;;22.35;12.07;;;;;;;9.67;83.31;99946.13;5091864;28;20465;-44
2023/04/13 08:44:05;;;;;;;20.20;11.68;;;;;;;9.68;81.96;99956.03;5091823;28;20046;-43
2023/04/13 08:46:31;;;;;;;22.17;11.75;;;;;;;9.73;81.85;99966.13;5091974;28;20024;-43
2023/04/13 08:48:58;;;;;;;20.58;11.50;;;;;;;9.74;81.70;99963.03;5091617;28;20047;-43
2023/04/13 08:51:25;;;;;;;20.95;11.82;;;;;;;9.79;82.16;99957.38;5090826;28;20341;-43
2023/04/13 08:53:54;;;;;;;21.70;11.80;;;;;;;9.89;79.99;99967.28;5091909;28;20031;-43
2023/04/13 08:56:21;;;;;;;20.85;12.10;;;;;;;9.92;80.35;99968.59;5091811;28;20481;-44
2023/04/13 08:58:48;;;;;;;21.85;11.27;;;;;;;10.03;79.56;99982.91;5091669;28;20032;-43
2023/04/13 09:01:14;;;;;;;22.00;12.25;;;;;;;10.03;78.43;99977.38;5091659;28;20481;-44
2023/04/13 09:04:10;;;;;;;23.40;12.10;;;;;;;10.13;79.82;99983.41;5091725;28;20035;-44
2023/04/13 09:06:41;;;;;;;21.40;11.70;;;;;;;10.21;78.48;99986.47;5091687;28;20036;-43
2023/04/13 09:09:14;;;;;;;21.70;11.35;;;;;;;10.13;78.29;99971.53;5091515;28;20024;-43
2023/04/13 09:11:41;;;;;;;20.83;11.50;;;;;;;10.33;77.25;99991.38;5091599;28;20111;-44
2023/04/13 09:14:08;;;;;;;20.20;11.40;;;;;;;10.41;76.54;100007.19;5091310;28;20269;-45
2023/04/13 09:16:38;;;;;;;21.08;11.20;;;;;;;10.40;76.82;99998.06;5091069;28;20028;-43
2023/04/13 09:19:04;;;;;;;25.73;11.73;;;;;;;10.47;76.38;100008.63;5091179;28;20067;-44
2023/04/13 09:21:41;;;;;;;21.15;11.45;;;;;;;10.49;75.29;100011.91;5090858;28;20064;-44
2023/04/13 09:24:06;;;;;;;23.23;11.50;;;;;;;10.55;75.94;100026.38;5089699;28;20487;-45
2023/04/13 09:26:52;;;;;;;22.85;11.30;;;;;;;10.59;76.09;100008.81;5090850;28;20031;-44
2023/04/13 09:29:19;;;;;;;21.20;11.15;;;;;;;10.61;76.45;100027.81;5090296;28;20050;-44
2023/04/13 09:31:46;;;;;;;22.13;11.25;;;;;;;10.61;75.44;100027.81;5089780;28;20040;-44
2023/04/13 09:34:12;;;;;;;21.50;11.80;;;;;;;10.61;74.92;100030.59;5091196;28;20567;-44
2023/04/13 09:36:37;;;;;;;20.33;11.38;;;;;;;10.56;73.97;100031.56;5091047;28;20107;-44
2023/04/13 09:39:04;;;;;;;18.70;11.00;;;;;;;10.54;74.84;100042.13;5090820;28;20048;-44
2023/04/13 09:41:39;;;;;;;20.88;10.73;;;;;;;10.56;74.83;100050.94;5089827;28;20449;-44
2023/04/13 09:44:26;;;;;;;21.42;11.15;;;;;;;10.52;74.03;100051.91;5090896;28;20120;-45
2023/04/13 09:46:56;;;;;;;19.95;10.70;;;;;;;10.52;73.80;100061.03;5090889;28;20400;-46
2023/04/13 09:49:22;;;;;;;21.33;11.20;;;;;;;10.51;74.24;100061.34;5090916;28;20024;-43
2023/04/13 09:51:47;;;;;;;20.02;11.75;;;;;;;10.54;74.39;100074.53;5089572;28;20028;-44
2023/04/13 09:54:19;;;;;;;20.95;11.10;;;;;;;10.57;74.08;100077.44;5090911;28;20027;-44
2023/04/13 09:56:46;;;;;;;21.80;11.32;;;;;;;10.63;73.57;100078.09;5091001;28;20028;-43
2023/04/13 09:59:13;;;;;;;19.30;10.70;;;;;;;10.72;72.66;100097.47;5089447;28;20032;-43
2023/04/13 10:01:42;;;;;;;20.23;10.65;;;;;;;10.76;72.75;100093.75;5090663;28;20024;-43
2023/04/13 10:04:07;;;;;;;20.67;11.30;;;;;;;10.74;73.04;100095.19;5090497;28;20036;-44
2023/04/13 10:06:40;;;;;;;22.17;10.90;;;;;;;10.69;72.52;100098.91;5090633;28;20028;-43
2023/04/13 10:09:06;;;;;;;18.48;11.00;;;;;;;10.71;72.54;100118.78;5090485;28;20024;-44
2023/04/13 10:11:45;;;;;;;22.35;11.68;;;;;;;10.69;72.83;100114.72;5084289;28;20028;-45
2023/04/13 10:14:18;;;;;;;18.52;11.00;;;;;;;10.70;72.65;100110.81;5070042;28;20020;-44
2023/04/13 10:17:04;;;;;;;20.33;11.23;;;;;;;10.71;72.60;100126.28;5068436;28;20064;-44
2023/04/13 10:19:35;;;;;;;20.17;11.05;;;;;;;10.75;72.47;100133.59;5072106;28;20027;-45
2023/04/13 10:22:03;;;;;;;19.27;10.93;;;;;;;10.82;71.11;100135.06;5072043;28;20025;-44
2023/04/13 10:24:28;;;;;;;19.65;10.73;;;;;;;10.82;70.68;100130.31;5071713;28;20029;-44
2023/04/13 10:27:00;;;;;;;19.45;11.30;;;;;;;10.82;70.92;100137.81;5071524;28;20043;-45
2023/04/13 10:29:27;;;;;;;22.35;11.10;;;;;;;10.86;70.49;100145.16;5071594;28;20028;-44
2023/04/13 10:32:01;;;;;;;18.92;10.57;;;;;;;10.88;70.93;100150.34;5070263;28;20477;-47
2023/04/13 10:34:28;;;;;;;21.73;11.15;;;;;;;10.92;70.51;100149.38;5070572;28;20041;-44
2023/04/13 10:36:57;;;;;;;19.52;10.82;;;;;;;11.03;70.65;100149.06;5071418;28;20048;-44
2023/04/13 10:39:24;;;;;;;21.42;10.80;;;;;;;11.01;71.77;100146.63;5070988;28;20135;-46
2023/04/13 10:42:04;;;;;;;25.38;11.85;;;;;;;11.10;72.07;100156.88;5071598;28;20025;-44
2023/04/13 10:44:40;;;;;;;20.23;11.43;;;;;;;10.94;71.09;100162.91;5071386;28;20024;-45
2023/04/13 10:47:07;;;;;;;24.67;12.45;;;;;;;11.02;70.78;100180.63;5071193;28;20078;-43
2023/04/13 10:49:32;;;;;;;21.88;11.85;;;;;;;10.96;71.22;100185.50;5070935;28;20034;-44
2023/04/13 10:51:57;;;;;;;22.23;12.05;;;;;;;10.93;71.65;100181.44;5070636;28;20107;-47
2023/04/13 10:54:26;;;;;;;23.88;11.80;;;;;;;11.00;72.18;100189.28;5070975;28;20051;-44
2023/04/13 10:56:58;;;;;;;22.75;11.98;;;;;;;11.06;72.66;100192.69;5071564;28;20031;-46
2023/04/13 10:59:47;;;;;;;21.60;11.77;;;;;;;11.02;71.34;100191.69;5070310;28;20078;-46
2023/04/13 11:02:14;;;;;;;20.85;12.05;;;;;;;11.02;71.01;100203.59;5070379;28;20724;-44
2023/04/13 11:04:41;;;;;;;23.70;14.00;;;;;;;11.01;71.09;100201.97;5069445;28;20121;-43
2023/04/13 11:07:10;;;;;;;21.35;11.43;;;;;;;10.95;70.86;100196.91;5069111;28;20029;-46
2023/04/13 11:09:37;;;;;;;20.75;11.40;;;;;;;10.91;69.93;100197.56;5069220;28;20077;-47
2023/04/13 11:12:03;;;;;;;20.65;10.73;;;;;;;10.95;68.75;100205.22;5069267;28;20025;-44
2023/04/13 11:14:28;;;;;;;21.70;11.95;;;;;;;10.97;69.72;100208.47;5069848;28;20030;-45
2023/04/13 11:16:53;;;;;;;20.27;11.00;;;;;;;10.98;69.15;100224.75;5071760;28;20198;-43
2023/04/13 11:19:19;;;;;;;21.08;11.70;;;;;;;11.05;68.96;100210.44;5074949;28;20025;-44
2023/04/13 11:21:44;;;;;;;20.98;11.20;;;;;;;11.11;69.30;100216.63;5074800;28;20059;-46